Time,TemperatureF,DewpointF,PressureIn,WindDirection,WindDirectionDegrees,WindSpeedMPH,WindSpeedGustMPH,Humidity,HourlyPrecipIn,Conditions,Clouds,dailyrainin,SoftwareType,DateUTC
2013-02-09 00:01:00,48.0,38.0,-100.00,East,80,0.0,0.0,67,0.00,,,0.00,,2013-02-09 07:01:00,
2013-02-09 00:11:00,48.0,38.0,-100.00,East,80,0.0,0.0,67,0.00,,,0.00,,2013-02-09 07:11:00,
2013-02-09 00:21:00,48.0,38.0,-100.00,East,80,0.0,0.0,67,0.00,,,0.00,,2013-02-09 07:21:00,
2013-02-09 00:31:00,47.0,37.0,-100.00,East,80,0.0,0.0,69,0.00,,,0.00,,2013-02-09 07:31:00,
2013-02-09 00:41:00,47.0,37.0,-100.00,East,80,0.0,0.0,69,0.00,,,0.00,,2013-02-09 07:41:00,
2013-02-09 00:51:00,47.0,38.0,-100.00,East,80,0.0,0.0,70,0.00,,,0.00,,2013-02-09 07:51:00,
2013-02-09 01:01:00,47.0,38.0,-100.00,NNW,335,5.0,5.0,70,0.00,,,0.00,,2013-02-09 08:01:00,
2013-02-09 01:11:00,47.0,38.0,-100.00,NNW,335,5.0,5.0,70,0.00,,,0.00,,2013-02-09 08:11:00,
2013-02-09 01:21:00,47.0,37.0,-100.00,East,87,2.0,2.0,68,0.00,,,0.00,,2013-02-09 08:21:00,
2013-02-09 01:31:00,47.0,37.0,-100.00,ENE,73,3.0,3.0,68,0.00,,,0.00,,2013-02-09 08:31:00,
2013-02-09 01:41:00,47.0,37.0,-100.00,ENE,73,3.0,3.0,68,0.00,,,0.00,,2013-02-09 08:41:00,
2013-02-09 01:52:00,47.0,37.0,-100.00,ESE,114,0.0,0.0,67,0.00,,,0.00,,2013-02-09 08:52:00,
2013-02-09 02:02:00,47.0,36.0,-100.00,ESE,117,0.0,0.0,66,0.00,,,0.00,,2013-02-09 09:02:00,
2013-02-09 02:11:00,47.0,36.0,-100.00,ESE,117,0.0,0.0,66,0.00,,,0.00,,2013-02-09 09:11:00,
2013-02-09 02:21:00,47.0,36.0,-100.00,South,180,1.0,0.0,66,0.00,,,0.00,,2013-02-09 09:21:00,
2013-02-09 02:31:00,46.0,35.0,-100.00,SE,135,0.0,0.0,66,0.00,,,0.00,,2013-02-09 09:31:00,
2013-02-09 02:41:00,46.0,35.0,-100.00,SE,135,0.0,0.0,66,0.00,,,0.00,,2013-02-09 09:41:00,
2013-02-09 02:51:00,46.0,36.0,-100.00,SE,135,0.0,0.0,67,0.00,,,0.00,,2013-02-09 09:51:00,
2013-02-09 03:01:00,45.0,35.0,-100.00,SE,135,0.0,0.0,68,0.00,,,0.00,,2013-02-09 10:01:00,
2013-02-09 03:11:00,45.0,35.0,-100.00,SE,135,0.0,0.0,68,0.00,,,0.00,,2013-02-09 10:11:00,
2013-02-09 03:21:00,45.0,35.0,-100.00,SE,135,0.0,0.0,68,0.00,,,0.00,,2013-02-09 10:21:00,
2013-02-09 03:31:00,45.0,35.0,-100.00,SE,135,0.0,0.0,68,0.00,,,0.00,,2013-02-09 10:31:00,
2013-02-09 03:41:00,45.0,35.0,-100.00,SE,135,0.0,0.0,68,0.00,,,0.00,,2013-02-09 10:41:00,
2013-02-09 03:51:00,44.0,35.0,-100.00,SE,135,0.0,0.0,70,0.00,,,0.00,,2013-02-09 10:51:00,
2013-02-09 04:01:00,44.0,36.0,-100.00,SE,135,4.0,4.0,72,0.00,,,0.00,,2013-02-09 11:01:00,
2013-02-09 04:11:00,44.0,36.0,-100.00,SE,135,4.0,4.0,72,0.00,,,0.00,,2013-02-09 11:11:00,
2013-02-09 04:21:00,44.0,36.0,-100.00,East,96,4.0,4.0,72,0.00,,,0.00,,2013-02-09 11:21:00,
2013-02-09 04:31:00,44.0,36.0,-100.00,East,97,4.0,4.0,72,0.00,,,0.00,,2013-02-09 11:31:00,
2013-02-09 04:41:00,44.0,36.0,-100.00,East,97,4.0,4.0,72,0.00,,,0.00,,2013-02-09 11:41:00,
2013-02-09 04:52:00,45.0,36.0,-100.00,ESE,111,4.0,5.0,70,0.00,,,0.00,,2013-02-09 11:52:00,
2013-02-09 05:01:00,45.0,35.0,-100.00,ESE,104,6.0,6.0,69,0.00,,,0.00,,2013-02-09 12:01:00,
2013-02-09 05:11:00,45.0,35.0,-100.00,ESE,104,6.0,6.0,69,0.00,,,0.00,,2013-02-09 12:11:00,
2013-02-09 05:21:00,45.0,35.0,-100.00,ESE,105,4.0,4.0,68,0.00,,,0.00,,2013-02-09 12:21:00,
2013-02-09 05:32:00,45.0,35.0,-100.00,East,90,4.0,4.0,68,0.00,,,0.00,,2013-02-09 12:32:00,
2013-02-09 05:41:00,45.0,35.0,-100.00,East,90,4.0,4.0,68,0.00,,,0.00,,2013-02-09 12:41:00,
2013-02-09 05:52:00,44.0,34.0,-100.00,ESE,105,3.0,3.0,69,0.00,,,0.00,,2013-02-09 12:52:00,
2013-02-09 06:01:00,43.0,34.0,-100.00,ESE,117,4.0,4.0,71,0.00,,,0.00,,2013-02-09 13:01:00,
2013-02-09 06:11:00,43.0,34.0,-100.00,ESE,117,4.0,4.0,71,0.00,,,0.00,,2013-02-09 13:11:00,
2013-02-09 06:21:00,43.0,34.0,-100.00,SSE,160,0.0,0.0,71,0.00,,,0.00,,2013-02-09 13:21:00,
2013-02-09 06:31:00,42.0,34.0,-100.00,ENE,73,3.0,3.0,73,0.00,,,0.00,,2013-02-09 13:31:00,
2013-02-09 06:41:00,42.0,34.0,-100.00,ENE,73,3.0,3.0,73,0.00,,,0.00,,2013-02-09 13:41:00,
2013-02-09 06:52:00,42.0,34.0,-100.00,NE,37,0.0,0.0,74,0.00,,,0.00,,2013-02-09 13:52:00,
2013-02-09 07:01:00,43.0,35.0,-100.00,NE,37,0.0,0.0,73,0.00,,,0.00,,2013-02-09 14:01:00,
2013-02-09 07:11:00,43.0,35.0,-100.00,NE,37,0.0,0.0,73,0.00,,,0.00,,2013-02-09 14:11:00,
2013-02-09 07:21:00,43.0,35.0,-100.00,NE,37,0.0,0.0,73,0.00,,,0.00,,2013-02-09 14:21:00,
2013-02-09 07:31:00,42.0,34.0,-100.00,NE,37,0.0,0.0,74,0.00,,,0.00,,2013-02-09 14:31:00,
2013-02-09 07:41:00,42.0,34.0,-100.00,NE,37,0.0,0.0,74,0.00,,,0.00,,2013-02-09 14:41:00,
2013-02-09 07:52:00,43.0,35.0,-100.00,East,91,1.0,0.0,74,0.00,,,0.00,,2013-02-09 14:52:00,
2013-02-09 08:01:00,43.0,35.0,-100.00,ENE,72,0.0,0.0,74,0.00,,,0.00,,2013-02-09 15:01:00,
2013-02-09 08:11:00,43.0,35.0,-100.00,ENE,72,0.0,0.0,74,0.00,,,0.00,,2013-02-09 15:11:00,
2013-02-09 08:21:00,43.0,35.0,-100.00,ENE,62,2.0,3.0,74,0.00,,,0.00,,2013-02-09 15:21:00,
2013-02-09 08:31:00,45.0,37.0,-100.00,NE,39,0.0,0.0,72,0.00,,,0.00,,2013-02-09 15:31:00,
2013-02-09 08:41:00,45.0,37.0,-100.00,NE,39,0.0,0.0,72,0.00,,,0.00,,2013-02-09 15:41:00,
2013-02-09 08:52:00,46.0,36.0,-100.00,NE,39,0.0,0.0,69,0.00,,,0.00,,2013-02-09 15:52:00,
2013-02-09 09:01:00,48.0,38.0,-100.00,NE,39,0.0,0.0,67,0.00,,,0.00,,2013-02-09 16:01:00,
2013-02-09 09:11:00,48.0,38.0,-100.00,NE,39,0.0,0.0,67,0.00,,,0.00,,2013-02-09 16:11:00,
2013-02-09 09:21:00,48.0,36.0,-100.00,WNW,285,2.0,2.0,64,0.00,,,0.00,,2013-02-09 16:21:00,
2013-02-09 09:31:00,49.0,37.0,-100.00,SE,146,3.0,3.0,63,0.00,,,0.00,,2013-02-09 16:31:00,
2013-02-09 09:41:00,49.0,37.0,-100.00,SE,146,3.0,3.0,63,0.00,,,0.00,,2013-02-09 16:41:00,
2013-02-09 09:52:00,50.0,37.0,-100.00,ESE,115,0.0,0.0,61,0.00,,,0.00,,2013-02-09 16:52:00,
2013-02-09 10:01:00,52.0,38.0,-100.00,ENE,63,2.0,2.0,58,0.00,,,0.00,,2013-02-09 17:01:00,
2013-02-09 10:11:00,52.0,38.0,-100.00,ENE,63,2.0,2.0,58,0.00,,,0.00,,2013-02-09 17:11:00,
2013-02-09 10:21:00,52.0,36.0,-100.00,ESE,111,0.0,0.0,55,0.00,,,0.00,,2013-02-09 17:21:00,
2013-02-09 10:31:00,53.0,37.0,-100.00,West,266,4.0,4.0,54,0.00,,,0.00,,2013-02-09 17:31:00,
2013-02-09 10:41:00,53.0,37.0,-100.00,West,266,4.0,4.0,54,0.00,,,0.00,,2013-02-09 17:41:00,
2013-02-09 10:52:00,55.0,38.0,-100.00,West,281,2.0,2.0,52,0.00,,,0.00,,2013-02-09 17:52:00,
2013-02-09 11:01:00,56.0,37.0,-100.00,ESE,104,2.0,0.0,49,0.00,,,0.00,,2013-02-09 18:01:00,
2013-02-09 11:11:00,56.0,37.0,-100.00,ESE,104,2.0,0.0,49,0.00,,,0.00,,2013-02-09 18:11:00,
2013-02-09 11:22:00,58.0,38.0,-100.00,South,190,7.0,7.0,47,0.00,,,0.00,,2013-02-09 18:22:00,
2013-02-09 11:31:00,57.0,36.0,-100.00,SSW,207,5.0,8.0,46,0.00,,,0.00,,2013-02-09 18:31:00,
2013-02-09 11:41:00,57.0,36.0,-100.00,SSW,207,5.0,8.0,46,0.00,,,0.00,,2013-02-09 18:41:00,
2013-02-09 11:52:00,57.0,35.0,-100.00,SSE,167,6.0,9.0,43,0.00,,,0.00,,2013-02-09 18:52:00,
2013-02-09 12:01:00,58.0,35.0,-100.00,SW,218,8.0,8.0,42,0.00,,,0.00,,2013-02-09 19:01:00,
2013-02-09 12:11:00,58.0,35.0,-100.00,SW,218,8.0,8.0,42,0.00,,,0.00,,2013-02-09 19:11:00,
2013-02-09 12:21:00,60.0,36.0,-100.00,SSW,210,4.0,5.0,40,0.00,,,0.00,,2013-02-09 19:21:00,
2013-02-09 12:31:00,59.0,34.0,-100.00,SSW,194,7.0,9.0,39,0.00,,,0.00,,2013-02-09 19:31:00,
2013-02-09 12:41:00,59.0,34.0,-100.00,SSW,194,7.0,9.0,39,0.00,,,0.00,,2013-02-09 19:41:00,
2013-02-09 12:52:00,60.0,33.0,-100.00,WNW,284,7.0,7.0,36,0.00,,,0.00,,2013-02-09 19:52:00,
2013-02-09 13:01:00,61.0,34.0,-100.00,WSW,248,6.0,6.0,36,0.00,,,0.00,,2013-02-09 20:01:00,
2013-02-09 13:11:00,61.0,34.0,-100.00,WSW,248,6.0,6.0,36,0.00,,,0.00,,2013-02-09 20:11:00,
2013-02-09 13:21:00,62.0,34.0,-100.00,SE,127,10.0,10.0,35,0.00,,,0.00,,2013-02-09 20:21:00,
2013-02-09 13:31:00,61.0,34.0,-100.00,SW,218,9.0,14.0,36,0.00,,,0.00,,2013-02-09 20:31:00,
2013-02-09 13:41:00,61.0,34.0,-100.00,SW,218,9.0,14.0,36,0.00,,,0.00,,2013-02-09 20:41:00,
2013-02-09 13:52:00,61.0,34.0,-100.00,SSW,193,6.0,9.0,36,0.00,,,0.00,,2013-02-09 20:52:00,
2013-02-09 14:01:00,61.0,33.0,-100.00,SSW,193,10.0,11.0,35,0.00,,,0.00,,2013-02-09 21:01:00,
2013-02-09 14:11:00,61.0,33.0,-100.00,SSW,193,10.0,11.0,35,0.00,,,0.00,,2013-02-09 21:11:00,
2013-02-09 14:21:00,61.0,35.0,-100.00,SSE,152,11.0,11.0,38,0.00,,,0.00,,2013-02-09 21:21:00,
2013-02-09 14:31:00,60.0,34.0,-100.00,WSW,250,6.0,6.0,37,0.00,,,0.00,,2013-02-09 21:31:00,
2013-02-09 14:41:00,60.0,34.0,-100.00,WSW,250,6.0,6.0,37,0.00,,,0.00,,2013-02-09 21:41:00,
2013-02-09 14:52:00,62.0,35.0,-100.00,SSW,204,7.0,7.0,37,0.00,,,0.00,,2013-02-09 21:52:00,
2013-02-09 15:01:00,60.0,34.0,-100.00,ESE,122,4.0,5.0,38,0.00,,,0.00,,2013-02-09 22:01:00,
2013-02-09 15:11:00,60.0,34.0,-100.00,ESE,122,4.0,5.0,38,0.00,,,0.00,,2013-02-09 22:11:00,
2013-02-09 15:21:00,60.0,34.0,-100.00,West,267,8.0,8.0,38,0.00,,,0.00,,2013-02-09 22:21:00,
2013-02-09 15:31:00,59.0,34.0,-100.00,SSW,211,8.0,8.0,39,0.00,,,0.00,,2013-02-09 22:31:00,
2013-02-09 15:41:00,59.0,34.0,-100.00,SSW,211,8.0,8.0,39,0.00,,,0.00,,2013-02-09 22:41:00,
2013-02-09 15:52:00,61.0,35.0,-100.00,WNW,293,6.0,9.0,37,0.00,,,0.00,,2013-02-09 22:52:00,
2013-02-09 16:01:00,61.0,35.0,-100.00,SW,222,4.0,5.0,38,0.00,,,0.00,,2013-02-09 23:01:00,
2013-02-09 16:11:00,61.0,35.0,-100.00,SW,222,4.0,5.0,38,0.00,,,0.00,,2013-02-09 23:11:00,
2013-02-09 16:21:00,61.0,35.0,-100.00,SW,235,3.0,9.0,37,0.00,,,0.00,,2013-02-09 23:21:00,
2013-02-09 16:31:00,60.0,34.0,-100.00,South,177,6.0,8.0,38,0.00,,,0.00,,2013-02-09 23:31:00,
2013-02-09 16:41:00,60.0,34.0,-100.00,South,177,6.0,8.0,38,0.00,,,0.00,,2013-02-09 23:41:00,
2013-02-09 16:52:00,60.0,34.0,-100.00,South,177,6.0,8.0,38,0.00,,,0.00,,2013-02-09 23:52:00,
2013-02-09 17:02:00,61.0,34.0,-100.00,SSE,149,10.0,10.0,36,0.00,,,0.00,,2013-02-10 00:02:00,
2013-02-09 17:11:00,61.0,34.0,-100.00,SSE,149,10.0,10.0,36,0.00,,,0.00,,2013-02-10 00:11:00,
2013-02-09 17:21:00,60.0,34.0,-100.00,SW,235,8.0,8.0,38,0.00,,,0.00,,2013-02-10 00:21:00,
2013-02-09 17:31:00,60.0,32.0,-100.00,West,267,9.0,9.0,35,0.00,,,0.00,,2013-02-10 00:31:00,
2013-02-09 17:41:00,60.0,32.0,-100.00,West,267,9.0,9.0,35,0.00,,,0.00,,2013-02-10 00:41:00,
2013-02-09 17:52:00,60.0,32.0,-100.00,West,278,9.0,9.0,35,0.00,,,0.00,,2013-02-10 00:52:00,
2013-02-09 18:01:00,59.0,33.0,-100.00,WSW,246,7.0,7.0,37,0.00,,,0.00,,2013-02-10 01:01:00,
2013-02-09 18:11:00,59.0,33.0,-100.00,WSW,246,7.0,7.0,37,0.00,,,0.00,,2013-02-10 01:11:00,
2013-02-09 18:21:00,58.0,33.0,-100.00,SW,232,4.0,5.0,38,0.00,,,0.00,,2013-02-10 01:21:00,
2013-02-09 18:31:00,57.0,32.0,-100.00,South,187,2.0,2.0,39,0.00,,,0.00,,2013-02-10 01:31:00,
2013-02-09 18:41:00,57.0,32.0,-100.00,South,187,2.0,2.0,39,0.00,,,0.00,,2013-02-10 01:41:00,
2013-02-09 18:51:00,56.0,32.0,-100.00,ESE,111,0.0,0.0,40,0.00,,,0.00,,2013-02-10 01:51:00,
2013-02-09 19:01:00,55.0,32.0,-100.00,ESE,111,0.0,0.0,41,0.00,,,0.00,,2013-02-10 02:01:00,
2013-02-09 19:11:00,55.0,32.0,-100.00,ESE,111,0.0,0.0,41,0.00,,,0.00,,2013-02-10 02:11:00,
2013-02-09 19:21:00,54.0,32.0,-100.00,ESE,111,0.0,0.0,43,0.00,,,0.00,,2013-02-10 02:21:00,
2013-02-09 19:31:00,54.0,33.0,-100.00,SE,125,0.0,0.0,44,0.00,,,0.00,,2013-02-10 02:31:00,
2013-02-09 19:41:00,54.0,33.0,-100.00,SE,125,0.0,0.0,44,0.00,,,0.00,,2013-02-10 02:41:00,
2013-02-09 19:52:00,53.0,32.0,-100.00,SE,125,0.0,0.0,45,0.00,,,0.00,,2013-02-10 02:52:00,
2013-02-09 20:01:00,53.0,32.0,-100.00,SE,125,0.0,0.0,45,0.00,,,0.00,,2013-02-10 03:01:00,
2013-02-09 20:11:00,53.0,32.0,-100.00,SE,125,0.0,0.0,45,0.00,,,0.00,,2013-02-10 03:11:00,
2013-02-09 20:21:00,52.0,32.0,-100.00,SE,125,0.0,0.0,46,0.00,,,0.00,,2013-02-10 03:21:00,
2013-02-09 20:31:00,52.0,32.0,-100.00,SE,125,0.0,0.0,47,0.00,,,0.00,,2013-02-10 03:31:00,
2013-02-09 20:41:00,52.0,32.0,-100.00,SE,125,0.0,0.0,47,0.00,,,0.00,,2013-02-10 03:41:00,
2013-02-09 20:52:00,51.0,32.0,-100.00,SE,125,0.0,0.0,48,0.00,,,0.00,,2013-02-10 03:52:00,
2013-02-09 21:01:00,50.0,32.0,-100.00,SE,125,0.0,0.0,49,0.00,,,0.00,,2013-02-10 04:01:00,
2013-02-09 21:11:00,50.0,32.0,-100.00,SE,125,0.0,0.0,49,0.00,,,0.00,,2013-02-10 04:11:00,
2013-02-09 21:21:00,50.0,33.0,-100.00,SE,125,0.0,0.0,51,0.00,,,0.00,,2013-02-10 04:21:00,
2013-02-09 21:31:00,50.0,33.0,-100.00,SE,125,0.0,0.0,52,0.00,,,0.00,,2013-02-10 04:31:00,
2013-02-09 21:41:00,50.0,33.0,-100.00,SE,125,0.0,0.0,52,0.00,,,0.00,,2013-02-10 04:41:00,
2013-02-09 21:52:00,50.0,33.0,-100.00,SE,125,0.0,0.0,52,0.00,,,0.00,,2013-02-10 04:52:00,
2013-02-09 22:01:00,50.0,33.0,-100.00,ESE,103,0.0,0.0,51,0.00,,,0.00,,2013-02-10 05:01:00,
2013-02-09 22:11:00,50.0,33.0,-100.00,ESE,103,0.0,0.0,51,0.00,,,0.00,,2013-02-10 05:11:00,
2013-02-09 22:22:00,50.0,33.0,-100.00,ESE,117,0.0,0.0,52,0.00,,,0.00,,2013-02-10 05:22:00,
2013-02-09 22:31:00,50.0,33.0,-100.00,SE,128,0.0,0.0,52,0.00,,,0.00,,2013-02-10 05:31:00,
2013-02-09 22:41:00,50.0,33.0,-100.00,SE,128,0.0,0.0,52,0.00,,,0.00,,2013-02-10 05:41:00,
2013-02-09 22:52:00,50.0,33.0,-100.00,NE,49,0.0,0.0,52,0.00,,,0.00,,2013-02-10 05:52:00,
2013-02-09 23:01:00,49.0,33.0,-100.00,ENE,76,0.0,0.0,54,0.00,,,0.00,,2013-02-10 06:01:00,
2013-02-09 23:11:00,49.0,33.0,-100.00,ENE,76,0.0,0.0,54,0.00,,,0.00,,2013-02-10 06:11:00,
2013-02-09 23:21:00,49.0,34.0,-100.00,East,86,0.0,0.0,55,0.00,,,0.00,,2013-02-10 06:21:00,
2013-02-09 23:31:00,49.0,34.0,-100.00,East,91,0.0,0.0,55,0.00,,,0.00,,2013-02-10 06:31:00,
2013-02-09 23:42:00,49.0,34.0,-100.00,East,91,0.0,0.0,55,0.00,,,0.00,,2013-02-10 06:42:00,
2013-02-09 23:52:00,48.0,34.0,-100.00,East,91,0.0,0.0,57,0.00,,,0.00,,2013-02-10 06:52:00,